桶川 LCL     1010-1045 (0+35)  A36TC
桶川 LCL     1130-1220 (0+50)  A36TC

Kさんと1回づつローカルで飛んで飛行はじめと機体洗い
をしてきました。関東平野のみ穏やかで大島も静岡も風
が吹いていました。帰りには温泉に寄って体もスッキリ
しました。

昨年末の飛行でログブックが1冊終わったこともあり
約5年振りにログブックの計算をしたらこの着陸が飛行機
の1400回目でした。グライダー等も入れると1886回です。

20190105DSC_3958お台場全景SM
お台場全景

20190105DSC_3972JA4179洗機後SM
飛んだ後に機体洗い。ワックスがけしてツヤがでました

RJTY 050256Z AUTO 15003KT 10SM CLR 12/M03 A2988
RMK AO2 SLP127 T01161030 57035 FZRANO $
RJTY 050156Z AUTO 00000KT 10SM CLR 11/M03 A2992
RMK AO2 SLP141 T01071034 FZRANO $
RJTY 050056Z AUTO 00000KT 10SM CLR 09/M03 A2996
RMK AO2 SLP155 T00941035 FZRANO $